Aérodrome :
LOGIN :

S'inscrire | Disclaimer

   EN    FR    IT 

 










Légende :    VFR   VFR Marginal   IFR   IFR Intensif   IFR Très Intensif
Visi : 
Plafond : 
>= 8 km
>= 3000ft
5 à 8 km
1000 à 3000 ft
1500m à 5 km
500 à 1000 ft
800 à 1500m
200 à 500 ft
< 800m
< 200 ft
Symboles :   Orages  Brouillard  Fortes neiges  Fortes précipitations  Vent > 20 kt
SIGMETs :   Divers  Orages  Givrage  Turbulence  Onde Orograph.  Cendres Volcan.







- Altitude de l'aérodrome : 162 ft
- Code IATA : BOD
- Voir les cartes d'approche


LFBD - Bordeaux / Merignac

DERNIER METAR :
  • 130900Z AUTO 11008KT 9999 -RA BKN008/// BKN037/// BKN050/// ///TCU 07/06 Q1006 TEMPO 4000 RA OVC008

METARs EXPIRÉS :
  • 130830Z AUTO 11008KT 7000 -RA BKN008/// BKN022/// BKN032/// ///TCU 07/06 Q1006 TEMPO 4000 RA OVC008
  • 130800Z AUTO 11007KT 9999 -RA BKN008/// BKN022/// OVC068/// ///TCU 07/07 Q1006 BECMG BKN008
  • 130730Z AUTO 11009KT 9999 OVC007/// ///TCU 07/06 Q1006 BECMG BKN005
  • 130700Z AUTO 11009KT 9999 OVC006 07/07 Q1006 TEMPO 3000 BR OVC002
  • 130630Z AUTO 11008KT 8000 OVC005 07/07 Q1006 TEMPO 3000 BR

TAF AMD TAF LFBD
Valide du 13 à 07h jusqu'au 14 à 12h UTC


130719Z 1307/1412 11010KT 9999 BKN005 TX08/1313Z TN02/1406Z
BECMG 1307/1309 -RA BKN008
TEMPO 1310/1318 4000 RA OVC008
BECMG 1318/1320 02005KT 9999 NSW
TEMPO 1320/1410 FEW010
BECMG 1410/1412 32005KT CAVOK
ATIS : +33 5 57 92 81 04
Pas de NOTAMs connus pour ce terrain.
1 SIGMET publié pour la FIR Bordeaux (LFBB) :
 
Turbulence forte
LFBB SIGMET 3 VALID 130720/131000 LFPW
LFBB BORDEAUX FIR/UIR SEV TURB OBS AT 0720Z WI N4230 E00045 - N4300 W00145 - N4630 W00130 - N4630 W00015 - N4700 W00015 - N4645 E00100 - N4230 E00045 FL300/390 MOV E 20KT NC=



MET'MAP, la Météo Aéronautique d'un coup d'oeil ! - Copyright ORBIFLY Décembre 2007 - Disclaimer

ORBIFLY MET'MAP TEAM :

Programmation & Développement : Alexandra Zaïnal
Conception & Développement : Baudouin d'Aumeries
Co-Programmation & Développement : Marc-Olivier Méhu
Soutien technique & logistique : Manuel Goepfert

Contact : metmap@orbifly.com




SOURCES & CREDITS :

   NOAA